Cannon Air Force Base

Airport
ICAO code: 
KCVS
Summary
ICAO Region: 
NAM
Territory: 
Location: 
Clovis, New Mexico,
Elevation: 
4295 ft
Coordinates: 
Aerial View: 
34° 23' 36.324" N, 103° 19' 9.674" W
Airport RE: 
Hot and High Operations
Metar
Observation
KCVS 021358Z AUTO 27006KT 10SM CLR 05/M10 A3018 RMK AO2 SLPNO T00541096
Station
Cannon Air Force Base / Clovis
Date/Time
2021-12-02 13:58:00
Wind direction
270°
Wind speed
06 kts
Lowest cloud amount
n/a
Temperature
5.4°C
Dew point
-9.6°C
Humidity
32%
Weather condition
n/a

Description

Cannon Air Force Base is a United States Air Force installation located 11 km west the central business district of Clovis, New Mexico.

Cimated

A semi-arid steppe climate (Köppen climate classification BSk), with generally cold, dry winters and hot summers. Late spring and early summer is on average the wettest period of the year.

Runways

Designator Length Width Surface Rops
13/31 2499 46 PEM Yes/Yes
4/22 3048 46 CON Yes/Yes
Airport map: 
Aerial View: 

SKYbrary Partners:

Safety knowledge contributed by: